createdAt,value
2017-10-30T00:00:03.395Z,0
2017-10-30T00:01:04.002Z,0
2017-10-30T00:02:04.609Z,0
2017-10-30T00:03:05.212Z,0
2017-10-30T00:04:05.815Z,0
2017-10-30T00:05:06.418Z,0
2017-10-30T00:06:07.025Z,0
2017-10-30T00:07:07.633Z,0
2017-10-30T00:08:08.243Z,0
2017-10-30T00:09:08.844Z,0
2017-10-30T00:10:09.434Z,0
2017-10-30T00:11:10.040Z,0
2017-10-30T00:12:10.648Z,0
2017-10-30T00:13:11.246Z,0
2017-10-30T00:14:11.849Z,0
2017-10-30T00:15:12.459Z,0
2017-10-30T00:16:13.062Z,0
2017-10-30T00:17:13.669Z,0
2017-10-30T00:18:14.273Z,0
2017-10-30T00:19:14.887Z,0
2017-10-30T00:20:15.473Z,0
2017-10-30T00:21:16.073Z,0
2017-10-30T00:22:16.669Z,0
2017-10-30T00:23:17.270Z,0
2017-10-30T00:24:17.876Z,0
2017-10-30T00:25:18.483Z,0
2017-10-30T00:26:19.077Z,0
2017-10-30T00:27:19.678Z,0
2017-10-30T00:28:20.284Z,0
2017-10-30T00:29:20.894Z,0
2017-10-30T00:30:21.498Z,0
2017-10-30T00:31:22.091Z,0
2017-10-30T00:32:22.700Z,0
2017-10-30T00:33:23.301Z,0
2017-10-30T00:34:23.902Z,0
2017-10-30T00:35:24.505Z,0
2017-10-30T00:36:25.113Z,0
2017-10-30T00:37:25.717Z,0
2017-10-30T00:38:26.320Z,0
2017-10-30T00:39:26.921Z,0
2017-10-30T00:40:27.527Z,0
2017-10-30T00:41:28.129Z,0
2017-10-30T00:42:28.737Z,0
2017-10-30T00:43:29.334Z,0
2017-10-30T00:44:29.939Z,0
2017-10-30T00:45:30.547Z,0
2017-10-30T00:46:31.148Z,0
2017-10-30T00:47:31.748Z,0
2017-10-30T00:48:32.351Z,0
2017-10-30T00:49:32.959Z,0
2017-10-30T00:50:33.585Z,0
2017-10-30T00:51:34.165Z,0
2017-10-30T00:52:34.767Z,0
2017-10-30T00:53:35.365Z,0
2017-10-30T00:54:35.964Z,0
2017-10-30T00:55:36.561Z,0
2017-10-30T00:56:37.151Z,0
2017-10-30T00:57:37.748Z,0
2017-10-30T00:58:38.357Z,0
2017-10-30T00:59:38.970Z,0
2017-10-30T01:01:23.779Z,0
2017-10-30T01:02:24.382Z,0
2017-10-30T01:03:24.985Z,0
2017-10-30T01:04:25.575Z,0
2017-10-30T01:05:26.182Z,0
2017-10-30T01:06:26.782Z,0
2017-10-30T01:07:27.394Z,0
2017-10-30T01:08:27.980Z,0
2017-10-30T01:09:28.578Z,0
2017-10-30T01:10:29.186Z,0
2017-10-30T01:11:29.792Z,0
2017-10-30T01:12:30.398Z,0
2017-10-30T01:13:30.997Z,0
2017-10-30T01:14:31.599Z,0
2017-10-30T01:15:32.202Z,0
2017-10-30T01:16:32.807Z,0
2017-10-30T01:17:33.402Z,0
2017-10-30T01:18:34.004Z,0
2017-10-30T01:19:34.597Z,0
2017-10-30T01:20:35.196Z,0
2017-10-30T01:21:35.796Z,0
2017-10-30T01:22:36.398Z,0
2017-10-30T01:23:36.996Z,0
2017-10-30T01:24:37.597Z,0
2017-10-30T01:25:38.194Z,0
2017-10-30T01:26:38.792Z,0
2017-10-30T01:27:39.407Z,0
2017-10-30T01:28:39.994Z,0
2017-10-30T01:29:40.604Z,0
2017-10-30T01:30:41.208Z,0
2017-10-30T01:31:41.806Z,0
2017-10-30T01:32:42.412Z,0
2017-10-30T01:33:43.005Z,0
2017-10-30T01:34:43.611Z,0
2017-10-30T01:35:44.211Z,0
2017-10-30T01:36:44.808Z,0
2017-10-30T01:37:45.409Z,0
2017-10-30T01:38:46.018Z,0
2017-10-30T01:39:46.618Z,0
2017-10-30T01:40:47.210Z,0
2017-10-30T01:41:47.803Z,0
2017-10-30T01:42:48.415Z,0
2017-10-30T01:43:48.989Z,0
2017-10-30T01:44:49.582Z,0
2017-10-30T01:45:50.188Z,0
2017-10-30T01:46:50.790Z,0
2017-10-30T01:47:51.397Z,0
2017-10-30T01:48:52.003Z,0
2017-10-30T01:49:52.607Z,0
2017-10-30T01:50:53.220Z,0
2017-10-30T01:51:53.816Z,0
2017-10-30T01:52:54.422Z,0
2017-10-30T01:53:55.032Z,0
2017-10-30T01:54:55.630Z,0
2017-10-30T01:55:56.224Z,0
2017-10-30T01:56:56.818Z,0
2017-10-30T01:57:57.413Z,0
2017-10-30T01:58:58.014Z,0
2017-10-30T01:59:58.615Z,0
2017-10-30T02:00:59.221Z,0
2017-10-30T02:01:59.817Z,0
2017-10-30T02:03:00.412Z,0
2017-10-30T02:04:01.005Z,0
2017-10-30T02:05:01.604Z,0
2017-10-30T02:06:02.216Z,0
2017-10-30T02:07:02.844Z,0
2017-10-30T02:08:03.427Z,0
2017-10-30T02:09:04.027Z,0
2017-10-30T02:10:04.628Z,0
2017-10-30T02:11:05.219Z,0
2017-10-30T02:12:05.825Z,0
2017-10-30T02:13:06.440Z,0
2017-10-30T02:14:07.040Z,0
2017-10-30T02:15:07.645Z,0
2017-10-30T02:16:08.256Z,0
2017-10-30T02:17:08.855Z,0
2017-10-30T02:18:09.462Z,0
2017-10-30T02:19:10.069Z,0
2017-10-30T02:20:10.672Z,0
2017-10-30T02:21:11.267Z,0
2017-10-30T02:22:11.865Z,0
2017-10-30T02:23:12.467Z,0
2017-10-30T02:24:13.064Z,0
2017-10-30T02:25:13.671Z,0
2017-10-30T02:26:14.282Z,0
2017-10-30T02:27:14.873Z,0
2017-10-30T02:28:15.482Z,0
2017-10-30T02:29:16.078Z,0
2017-10-30T02:30:16.679Z,0
2017-10-30T02:31:17.286Z,0
2017-10-30T02:32:17.911Z,0
2017-10-30T02:33:18.475Z,0
2017-10-30T02:34:19.093Z,0
2017-10-30T02:35:19.679Z,0
2017-10-30T02:36:20.280Z,0
2017-10-30T02:37:20.872Z,0
2017-10-30T02:38:21.464Z,0
2017-10-30T02:39:22.056Z,0
2017-10-30T02:40:22.655Z,0
2017-10-30T02:41:23.249Z,0
2017-10-30T02:42:23.842Z,0
2017-10-30T02:43:24.448Z,0
2017-10-30T02:44:25.054Z,0
2017-10-30T02:45:25.650Z,0
2017-10-30T02:46:26.240Z,0
2017-10-30T02:47:26.844Z,0
2017-10-30T02:48:27.436Z,0
2017-10-30T02:49:28.039Z,0
2017-10-30T02:50:28.666Z,0
2017-10-30T02:51:29.252Z,0
2017-10-30T02:52:29.859Z,0
2017-10-30T02:53:30.461Z,0
2017-10-30T02:54:31.061Z,0
2017-10-30T02:55:31.682Z,0
2017-10-30T02:56:32.273Z,0
2017-10-30T02:57:32.861Z,0
2017-10-30T02:58:33.464Z,0
2017-10-30T02:59:34.077Z,0
2017-10-30T03:00:34.673Z,0
2017-10-30T03:01:35.279Z,0
2017-10-30T03:02:35.881Z,0
2017-10-30T03:03:36.487Z,0
2017-10-30T03:04:37.079Z,0
2017-10-30T03:05:37.677Z,0
2017-10-30T03:06:38.287Z,0
2017-10-30T03:07:38.887Z,0
2017-10-30T03:08:39.498Z,0
2017-10-30T03:09:40.092Z,0
2017-10-30T03:10:40.696Z,0
2017-10-30T03:11:41.302Z,0
2017-10-30T03:12:41.901Z,0
2017-10-30T03:13:42.505Z,0
2017-10-30T03:14:43.103Z,0
2017-10-30T03:15:43.704Z,0
2017-10-30T03:16:44.323Z,0
2017-10-30T03:17:44.907Z,0
2017-10-30T03:18:45.512Z,0
2017-10-30T03:19:46.111Z,0
2017-10-30T03:20:46.704Z,0
2017-10-30T03:21:47.292Z,0
2017-10-30T03:22:47.896Z,0
2017-10-30T03:23:48.493Z,0
2017-10-30T03:24:49.095Z,0
2017-10-30T03:25:49.699Z,0
2017-10-30T03:26:50.301Z,0
2017-10-30T03:27:50.904Z,0
2017-10-30T03:28:51.508Z,0
2017-10-30T03:29:52.119Z,0
2017-10-30T03:30:52.722Z,0
2017-10-30T03:31:53.326Z,0
2017-10-30T03:32:53.928Z,0
2017-10-30T03:33:54.538Z,0
2017-10-30T03:34:55.143Z,0
2017-10-30T03:35:55.751Z,0
2017-10-30T03:36:56.339Z,0
2017-10-30T03:37:56.977Z,0
2017-10-30T03:38:57.545Z,0
2017-10-30T03:39:58.148Z,0
2017-10-30T03:40:58.744Z,0
2017-10-30T03:41:59.352Z,0
2017-10-30T03:42:59.957Z,0
2017-10-30T03:44:00.562Z,0
2017-10-30T03:45:01.168Z,0
2017-10-30T03:46:01.760Z,0
2017-10-30T03:47:02.360Z,0
2017-10-30T03:48:02.956Z,0
2017-10-30T03:49:03.558Z,0
2017-10-30T03:50:04.151Z,0
2017-10-30T03:51:04.760Z,0
2017-10-30T03:52:05.357Z,0
2017-10-30T03:53:05.955Z,0
2017-10-30T03:54:06.589Z,0
2017-10-30T03:55:07.173Z,0
2017-10-30T03:56:07.776Z,0
2017-10-30T03:57:08.367Z,0
2017-10-30T03:58:08.966Z,0
2017-10-30T03:59:09.568Z,0
2017-10-30T04:00:10.178Z,0
2017-10-30T04:01:10.783Z,0
2017-10-30T04:02:11.379Z,0
2017-10-30T04:03:11.971Z,0
2017-10-30T04:04:12.570Z,0
2017-10-30T04:05:13.177Z,0
2017-10-30T04:06:13.783Z,0
2017-10-30T04:07:14.387Z,0
2017-10-30T04:08:14.988Z,0
2017-10-30T04:09:15.597Z,0
2017-10-30T04:10:16.190Z,0
2017-10-30T04:11:16.786Z,0
2017-10-30T04:12:17.394Z,0
2017-10-30T04:13:17.988Z,0
2017-10-30T04:14:18.576Z,0
2017-10-30T04:15:19.200Z,0
2017-10-30T04:16:19.782Z,0
2017-10-30T04:17:20.384Z,0
2017-10-30T04:18:20.987Z,0
2017-10-30T04:19:21.594Z,0
2017-10-30T04:20:22.180Z,0
2017-10-30T04:21:22.776Z,0
2017-10-30T04:22:23.377Z,0
2017-10-30T04:23:23.979Z,0
2017-10-30T04:24:24.585Z,0
2017-10-30T04:25:25.187Z,0
2017-10-30T04:26:25.797Z,0
2017-10-30T04:27:26.379Z,0
2017-10-30T04:28:26.981Z,0
2017-10-30T04:29:27.583Z,0
2017-10-30T04:30:28.180Z,0
2017-10-30T04:31:28.771Z,0
2017-10-30T04:32:29.364Z,0
2017-10-30T04:33:29.972Z,0
2017-10-30T04:34:30.573Z,0
2017-10-30T04:35:31.173Z,0
2017-10-30T04:36:31.774Z,0
2017-10-30T04:37:32.378Z,0
2017-10-30T04:38:32.973Z,0
2017-10-30T04:39:33.584Z,0
2017-10-30T04:40:34.186Z,0
2017-10-30T04:41:34.787Z,0
2017-10-30T04:42:35.418Z,0
2017-10-30T04:43:35.978Z,0
2017-10-30T04:44:36.580Z,0
2017-10-30T04:45:37.172Z,0
2017-10-30T04:46:37.776Z,0
2017-10-30T04:47:38.368Z,0
2017-10-30T04:48:38.978Z,0
2017-10-30T04:49:39.581Z,0
2017-10-30T04:50:40.176Z,0
2017-10-30T04:51:40.781Z,0
2017-10-30T04:52:41.389Z,0
2017-10-30T04:53:41.982Z,0
2017-10-30T04:54:42.601Z,0
2017-10-30T04:55:43.190Z,0
2017-10-30T04:56:43.790Z,0
2017-10-30T04:57:44.381Z,0
2017-10-30T04:58:44.988Z,0
2017-10-30T04:59:45.588Z,0
2017-10-30T05:00:46.185Z,0
2017-10-30T05:01:46.786Z,0
2017-10-30T05:02:47.381Z,0
2017-10-30T05:03:47.987Z,0
2017-10-30T05:04:48.595Z,0
2017-10-30T05:05:49.194Z,0
2017-10-30T05:06:49.781Z,0
2017-10-30T05:07:50.380Z,0
2017-10-30T05:08:50.982Z,0
2017-10-30T05:09:51.599Z,0
2017-10-30T05:10:52.198Z,0
2017-10-30T05:11:52.805Z,0
2017-10-30T05:12:53.412Z,0
2017-10-30T05:13:54.015Z,0
2017-10-30T05:14:54.602Z,0
2017-10-30T05:15:55.199Z,0
2017-10-30T05:16:55.799Z,0
2017-10-30T05:17:56.398Z,0
2017-10-30T05:18:56.989Z,0
2017-10-30T05:19:57.596Z,0
2017-10-30T05:20:58.200Z,0
2017-10-30T05:21:58.802Z,0
2017-10-30T05:22:59.405Z,0
2017-10-30T05:24:00.010Z,0
2017-10-30T05:25:00.621Z,0
2017-10-30T05:26:01.230Z,0
2017-10-30T05:27:01.819Z,0
2017-10-30T05:28:02.426Z,0
2017-10-30T05:29:03.018Z,0
2017-10-30T05:30:03.608Z,0
2017-10-30T05:31:04.198Z,0
2017-10-30T05:32:04.794Z,0
2017-10-30T05:33:05.396Z,0
2017-10-30T05:34:06.012Z,0
2017-10-30T05:35:06.587Z,0
2017-10-30T05:36:07.194Z,0
2017-10-30T05:37:07.798Z,0
2017-10-30T05:38:08.405Z,0
2017-10-30T05:39:09.014Z,0
2017-10-30T05:40:09.619Z,0
2017-10-30T05:41:10.220Z,0
2017-10-30T05:42:10.857Z,0
2017-10-30T05:43:11.416Z,0
2017-10-30T05:44:12.021Z,0
2017-10-30T05:45:12.611Z,0
2017-10-30T05:46:13.198Z,4
2017-10-30T05:47:13.791Z,4
2017-10-30T05:48:14.417Z,0
2017-10-30T05:49:14.989Z,4
2017-10-30T05:50:15.595Z,4
2017-10-30T05:51:16.213Z,4
2017-10-30T05:52:16.798Z,4
2017-10-30T05:53:17.389Z,4
2017-10-30T05:54:18.038Z,8
2017-10-30T05:55:18.595Z,8
2017-10-30T05:56:19.227Z,8
2017-10-30T05:57:19.799Z,12
2017-10-30T05:58:20.406Z,12
2017-10-30T05:59:21.011Z,16
2017-10-30T06:00:21.634Z,20
2017-10-30T06:01:22.235Z,24
2017-10-30T06:02:22.844Z,24
2017-10-30T06:03:23.452Z,32
2017-10-30T06:04:24.057Z,36
2017-10-30T06:05:24.660Z,44
2017-10-30T06:06:25.270Z,56
2017-10-30T06:07:25.862Z,68
2017-10-30T06:08:26.464Z,76
2017-10-30T06:09:27.058Z,88
2017-10-30T06:10:27.652Z,104
2017-10-30T06:11:28.269Z,120
2017-10-30T06:12:28.851Z,136
2017-10-30T06:13:29.449Z,160
2017-10-30T06:14:30.051Z,180
2017-10-30T06:15:30.657Z,208
2017-10-30T06:16:31.252Z,240
2017-10-30T06:17:31.863Z,272
2017-10-30T06:18:32.461Z,308
2017-10-30T06:19:33.063Z,348
2017-10-30T06:20:33.675Z,384
2017-10-30T06:21:34.277Z,428
2017-10-30T06:22:34.878Z,464
2017-10-30T06:23:35.472Z,508
2017-10-30T06:24:36.086Z,552
2017-10-30T06:25:36.676Z,596
2017-10-30T06:26:37.270Z,652
2017-10-30T06:27:37.871Z,712
2017-10-30T06:28:38.464Z,780
2017-10-30T06:29:39.073Z,856
2017-10-30T06:30:39.681Z,932
2017-10-30T06:31:40.278Z,1004
2017-10-30T06:32:40.872Z,1072
2017-10-30T06:33:41.465Z,1132
2017-10-30T06:34:42.063Z,1188
2017-10-30T06:35:42.666Z,1236
2017-10-30T06:36:43.277Z,1288
2017-10-30T06:37:43.879Z,1340
2017-10-30T06:38:44.483Z,1400
2017-10-30T06:39:45.268Z,1468
2017-10-30T06:40:45.863Z,1552
2017-10-30T06:41:46.465Z,1632
2017-10-30T06:42:47.062Z,1688
2017-10-30T06:43:47.668Z,1744
2017-10-30T06:44:48.274Z,1796
2017-10-30T06:45:48.882Z,1860
2017-10-30T06:46:49.492Z,1932
2017-10-30T06:47:50.104Z,2012
2017-10-30T06:48:50.708Z,2088
2017-10-30T06:49:51.308Z,2160
2017-10-30T06:50:51.911Z,2244
2017-10-30T06:51:52.520Z,2344
2017-10-30T06:52:53.129Z,2444
2017-10-30T06:53:53.739Z,2552
2017-10-30T06:54:54.351Z,2632
2017-10-30T06:55:54.948Z,2700
2017-10-30T06:56:55.550Z,2868
2017-10-30T06:57:56.162Z,3040
2017-10-30T06:58:56.765Z,3184
2017-10-30T06:59:57.374Z,3332
2017-10-30T07:00:57.974Z,3492
2017-10-30T07:01:58.581Z,3680
2017-10-30T07:02:59.187Z,3828
2017-10-30T07:03:59.796Z,3864
2017-10-30T07:05:00.410Z,3976
2017-10-30T07:06:01.003Z,4424
2017-10-30T07:07:01.615Z,4544
2017-10-30T07:08:02.217Z,4792
2017-10-30T07:09:02.821Z,5216
2017-10-30T07:10:03.433Z,5084
2017-10-30T07:11:04.046Z,4868
2017-10-30T07:12:04.655Z,4916
2017-10-30T07:13:05.259Z,4912
2017-10-30T07:14:05.872Z,5692
2017-10-30T07:15:06.465Z,5848
2017-10-30T07:16:07.079Z,6008
2017-10-30T07:17:07.685Z,5892
2017-10-30T07:18:08.287Z,6148
2017-10-30T07:19:08.895Z,6280
2017-10-30T07:20:09.503Z,6324
2017-10-30T07:21:10.123Z,6332
2017-10-30T07:22:10.735Z,6304
2017-10-30T07:23:11.349Z,6284
2017-10-30T07:24:11.962Z,6320
2017-10-30T07:25:12.574Z,6308
2017-10-30T07:26:13.209Z,6156
2017-10-30T07:27:13.821Z,5976
2017-10-30T07:28:14.433Z,4816
2017-10-30T07:29:15.044Z,4352
2017-10-30T07:30:15.656Z,4368
2017-10-30T07:31:16.266Z,4548
2017-10-30T07:32:16.880Z,4668
2017-10-30T07:33:17.493Z,5104
2017-10-30T07:34:18.104Z,5380
2017-10-30T07:35:18.715Z,7752
2017-10-30T07:36:19.326Z,7916
2017-10-30T07:37:19.938Z,8228
2017-10-30T07:38:20.550Z,8408
2017-10-30T07:39:21.162Z,8488
2017-10-30T07:40:21.795Z,8484
2017-10-30T07:41:22.397Z,8320
2017-10-30T07:42:22.998Z,8556
2017-10-30T07:43:23.619Z,8672
2017-10-30T07:44:24.227Z,8560
2017-10-30T07:45:24.830Z,8916
2017-10-30T07:46:25.433Z,9048
2017-10-30T07:47:26.046Z,9052
2017-10-30T07:48:26.652Z,9136
2017-10-30T07:49:27.253Z,9008
2017-10-30T07:50:27.867Z,8940
2017-10-30T07:51:28.481Z,8696
2017-10-30T07:52:29.091Z,8308
2017-10-30T07:53:29.710Z,8096
2017-10-30T07:54:30.330Z,7748
2017-10-30T07:55:30.946Z,7632
2017-10-30T07:56:31.577Z,7948
2017-10-30T07:57:32.172Z,8192
2017-10-30T07:58:32.786Z,8108
2017-10-30T07:59:33.391Z,8492
2017-10-30T08:00:34.005Z,9012
2017-10-30T08:01:34.617Z,8704
2017-10-30T08:02:35.216Z,7884
2017-10-30T08:03:35.824Z,7504
2017-10-30T08:04:36.436Z,7100
2017-10-30T08:05:37.042Z,7592
2017-10-30T08:06:37.646Z,7260
2017-10-30T08:07:38.249Z,7064
2017-10-30T08:08:38.862Z,8380
2017-10-30T08:09:39.462Z,7964
2017-10-30T08:10:40.065Z,6992
2017-10-30T08:11:40.680Z,6832
2017-10-30T08:12:41.280Z,6624
2017-10-30T08:13:41.881Z,6948
2017-10-30T08:14:42.490Z,6896
2017-10-30T08:15:43.088Z,7272
2017-10-30T08:16:43.697Z,7828
2017-10-30T08:17:44.302Z,6996
2017-10-30T08:18:44.912Z,7436
2017-10-30T08:19:45.511Z,8200
2017-10-30T08:20:46.119Z,8336
2017-10-30T08:21:46.737Z,8056
2017-10-30T08:22:47.322Z,8536
2017-10-30T08:23:47.933Z,8896
2017-10-30T08:24:48.551Z,7640
2017-10-30T08:25:49.159Z,7856
2017-10-30T08:26:49.772Z,8052
2017-10-30T08:27:50.386Z,9408
2017-10-30T08:28:50.993Z,9436
2017-10-30T08:29:51.593Z,10940
2017-10-30T08:30:52.202Z,11804
2017-10-30T08:31:52.814Z,11200
2017-10-30T08:32:53.430Z,12496
2017-10-30T08:33:54.040Z,11148
2017-10-30T08:34:54.652Z,10140
2017-10-30T08:35:55.263Z,11444
2017-10-30T08:36:55.867Z,12344
2017-10-30T08:37:56.478Z,12360
2017-10-30T08:38:57.081Z,13980
2017-10-30T08:39:57.696Z,13092
2017-10-30T08:40:58.307Z,14036
2017-10-30T08:41:58.915Z,15380
2017-10-30T08:42:59.529Z,16032
2017-10-30T08:44:00.141Z,15720
2017-10-30T08:45:00.744Z,12960
2017-10-30T08:46:01.365Z,11740
2017-10-30T08:47:01.981Z,11672
2017-10-30T08:48:02.599Z,11072
2017-10-30T08:49:03.215Z,11080
2017-10-30T08:50:03.824Z,10708
2017-10-30T08:51:04.438Z,11740
2017-10-30T08:52:05.055Z,13128
2017-10-30T08:53:05.663Z,13596
2017-10-30T08:54:06.280Z,13568
2017-10-30T08:55:06.876Z,13692
2017-10-30T08:56:07.488Z,14528
2017-10-30T08:57:08.096Z,15680
2017-10-30T08:58:08.707Z,17864
2017-10-30T08:59:09.319Z,19296
2017-10-30T09:00:09.921Z,18108
2017-10-30T09:01:10.540Z,16080
2017-10-30T09:02:11.151Z,15888
2017-10-30T09:03:11.761Z,17108
2017-10-30T09:04:12.373Z,17624
2017-10-30T09:05:12.988Z,19712
2017-10-30T09:06:13.909Z,20832
2017-10-30T09:07:14.450Z,19328
2017-10-30T09:08:15.067Z,20608
2017-10-30T09:09:15.677Z,23392
2017-10-30T09:10:16.281Z,23520
2017-10-30T09:11:16.902Z,24352
2017-10-30T09:12:17.517Z,25568
2017-10-30T09:13:18.126Z,25472
2017-10-30T09:14:18.746Z,24256
2017-10-30T09:15:19.364Z,23584
2017-10-30T09:16:19.977Z,24448
2017-10-30T09:17:20.585Z,25728
2017-10-30T09:18:21.201Z,25312
2017-10-30T09:19:21.817Z,24512
2017-10-30T09:20:22.436Z,25312
2017-10-30T09:21:23.049Z,26336
2017-10-30T09:22:23.662Z,26592
2017-10-30T09:23:24.284Z,26528
2017-10-30T09:24:24.907Z,27136
2017-10-30T09:25:25.528Z,27744
2017-10-30T09:26:26.134Z,26848
2017-10-30T09:27:26.744Z,25248
2017-10-30T09:28:27.349Z,24992
2017-10-30T09:29:27.957Z,25920
2017-10-30T09:30:28.572Z,26432
2017-10-30T09:31:29.190Z,25888
2017-10-30T09:32:29.809Z,24896
2017-10-30T09:33:30.431Z,24288
2017-10-30T09:34:31.028Z,23200
2017-10-30T09:35:31.643Z,22176
2017-10-30T09:36:32.263Z,22016
2017-10-30T09:37:32.878Z,22816
2017-10-30T09:38:33.488Z,23840
2017-10-30T09:39:34.109Z,25088
2017-10-30T09:40:34.730Z,25408
2017-10-30T09:41:35.355Z,24960
2017-10-30T09:42:35.965Z,25504
2017-10-30T09:43:36.607Z,27552
2017-10-30T09:44:37.229Z,29952
2017-10-30T09:45:37.842Z,31168
2017-10-30T09:46:38.447Z,29568
2017-10-30T09:47:39.066Z,27648
2017-10-30T09:48:39.683Z,26944
2017-10-30T09:49:40.293Z,27328
2017-10-30T09:50:40.908Z,28288
2017-10-30T09:51:41.528Z,28640
2017-10-30T09:52:42.149Z,28000
2017-10-30T09:53:42.757Z,27488
2017-10-30T09:54:43.368Z,28352
2017-10-30T09:55:43.983Z,30528
2017-10-30T09:56:44.593Z,32128
2017-10-30T09:57:45.202Z,32512
2017-10-30T09:58:45.811Z,32096
2017-10-30T09:59:46.432Z,30560
2017-10-30T10:00:47.059Z,30048
2017-10-30T10:01:47.662Z,31648
2017-10-30T10:02:48.269Z,33888
2017-10-30T10:03:48.884Z,35040
2017-10-30T10:04:49.722Z,34048
2017-10-30T10:05:50.338Z,33088
2017-10-30T10:06:50.958Z,33920
2017-10-30T10:07:51.561Z,35456
2017-10-30T10:08:52.182Z,36704
2017-10-30T10:09:52.899Z,35936
2017-10-30T10:10:53.508Z,34560
2017-10-30T10:11:54.119Z,34848
2017-10-30T10:12:54.742Z,36672
2017-10-30T10:13:55.357Z,38144
2017-10-30T10:14:55.978Z,38880
2017-10-30T10:15:56.600Z,37696
2017-10-30T10:16:57.210Z,36224
2017-10-30T10:17:57.824Z,35744
2017-10-30T10:18:58.441Z,35808
2017-10-30T10:19:59.064Z,35136
2017-10-30T10:20:59.673Z,35936
2017-10-30T10:22:00.404Z,37504
2017-10-30T10:23:01.089Z,38368
2017-10-30T10:24:01.649Z,38944
2017-10-30T10:25:02.258Z,40672
2017-10-30T10:26:03.051Z,42400
2017-10-30T10:27:03.694Z,43776
2017-10-30T10:28:04.520Z,43712
2017-10-30T10:29:05.135Z,41856
2017-10-30T10:30:05.753Z,39360
2017-10-30T10:31:06.370Z,37536
2017-10-30T10:32:06.996Z,38048
2017-10-30T10:33:07.615Z,40032
2017-10-30T10:34:08.235Z,41472
2017-10-30T10:35:08.859Z,40704
2017-10-30T10:36:09.476Z,38880
2017-10-30T10:37:10.084Z,38688
2017-10-30T10:38:10.703Z,40992
2017-10-30T10:39:11.323Z,43552
2017-10-30T10:40:11.937Z,44608
2017-10-30T10:41:12.558Z,44224
2017-10-30T10:42:13.183Z,45088
2017-10-30T10:43:13.800Z,46208
2017-10-30T10:44:14.403Z,47104
2017-10-30T10:45:15.050Z,46400
2017-10-30T10:46:15.639Z,44832
2017-10-30T10:47:16.260Z,44480
2017-10-30T10:48:16.895Z,44896
2017-10-30T10:49:17.508Z,43648
2017-10-30T10:50:18.133Z,40128
2017-10-30T10:51:18.755Z,38624
2017-10-30T10:52:19.359Z,40576
2017-10-30T10:53:19.979Z,44224
2017-10-30T10:54:20.596Z,47008
2017-10-30T10:55:21.217Z,48352
2017-10-30T10:56:21.836Z,48064
2017-10-30T10:57:22.459Z,46080
2017-10-30T10:58:23.061Z,44512
2017-10-30T10:59:23.678Z,46144
2017-10-30T11:00:24.279Z,51264
2017-10-30T11:01:24.898Z,54624
2017-10-30T11:02:25.529Z,53984
2017-10-30T11:03:26.135Z,52096
2017-10-30T11:04:26.756Z,50304
2017-10-30T11:05:27.379Z,51776
2017-10-30T11:06:27.998Z,49696
2017-10-30T11:07:28.617Z,56160
2017-10-30T11:08:29.234Z,57344
2017-10-30T11:09:29.859Z,57248
2017-10-30T11:10:30.481Z,56128
2017-10-30T11:11:31.101Z,28288
2017-10-30T11:12:31.724Z,28672
2017-10-30T11:13:32.339Z,59488
2017-10-30T11:14:32.967Z,59328
2017-10-30T11:15:33.582Z,40256
2017-10-30T11:16:34.202Z,46400
2017-10-30T11:17:34.819Z,27616
2017-10-30T11:18:35.429Z,28832
2017-10-30T11:19:36.045Z,23232
2017-10-30T11:20:36.671Z,21120
2017-10-30T11:21:37.288Z,20576
2017-10-30T11:22:37.901Z,19104
2017-10-30T11:23:38.533Z,17224
2017-10-30T11:24:39.140Z,15252
2017-10-30T11:25:39.763Z,12764
2017-10-30T11:26:40.383Z,10708
2017-10-30T11:27:41.008Z,10440
2017-10-30T11:28:41.628Z,8216
2017-10-30T11:29:42.248Z,7568
2017-10-30T11:30:42.875Z,7476
2017-10-30T11:31:43.491Z,7084
2017-10-30T11:32:44.105Z,7636
2017-10-30T11:33:44.719Z,8348
2017-10-30T11:34:45.336Z,9840
2017-10-30T11:35:45.954Z,18648
2017-10-30T11:36:46.566Z,40672
2017-10-30T11:37:47.183Z,44896
2017-10-30T11:38:47.805Z,47968
2017-10-30T11:39:48.422Z,49376
2017-10-30T11:40:49.025Z,24960
2017-10-30T11:41:49.632Z,45632
2017-10-30T11:42:50.251Z,43200
2017-10-30T11:43:50.871Z,41728
2017-10-30T11:44:51.492Z,32512
2017-10-30T11:45:52.112Z,53792
2017-10-30T11:46:52.793Z,45504
2017-10-30T11:47:53.354Z,44576
2017-10-30T11:48:53.972Z,43040
2017-10-30T11:49:54.581Z,37760
2017-10-30T11:50:55.192Z,42400
2017-10-30T11:51:55.809Z,50656
2017-10-30T11:52:56.411Z,47968
2017-10-30T11:53:57.034Z,34752
2017-10-30T11:54:57.647Z,18352
2017-10-30T11:55:58.280Z,13624
2017-10-30T11:56:58.893Z,11496
2017-10-30T11:57:59.515Z,10204
2017-10-30T11:59:00.129Z,9344
2017-10-30T12:00:00.744Z,8592
2017-10-30T12:01:01.365Z,7948
2017-10-30T12:02:01.987Z,7184
2017-10-30T12:03:02.604Z,6664
2017-10-30T12:04:03.220Z,6412
2017-10-30T12:05:03.836Z,6408
2017-10-30T12:06:04.455Z,6380
2017-10-30T12:07:05.082Z,6416
2017-10-30T12:08:05.711Z,6680
2017-10-30T12:09:06.335Z,8004
2017-10-30T12:10:06.941Z,9248
2017-10-30T12:11:07.688Z,11416
2017-10-30T12:12:08.302Z,42400
2017-10-30T12:13:08.916Z,40672
2017-10-30T12:14:09.521Z,43072
2017-10-30T12:15:10.139Z,46496
2017-10-30T12:16:10.749Z,49408
2017-10-30T12:17:11.370Z,48992
2017-10-30T12:18:11.992Z,47680
2017-10-30T12:19:12.609Z,47008
2017-10-30T12:20:13.224Z,23936
2017-10-30T12:21:13.829Z,21312
2017-10-30T12:22:14.448Z,19136
2017-10-30T12:23:15.064Z,16288
2017-10-30T12:24:15.685Z,14260
2017-10-30T12:25:16.305Z,13656
2017-10-30T12:26:16.919Z,14180
2017-10-30T12:27:17.538Z,15416
2017-10-30T12:28:18.147Z,18468
2017-10-30T12:29:18.748Z,19488
2017-10-30T12:30:19.360Z,20928
2017-10-30T12:31:19.970Z,22240
2017-10-30T12:32:20.592Z,22336
2017-10-30T12:33:21.200Z,22912
2017-10-30T12:34:21.810Z,24768
2017-10-30T12:35:22.415Z,20256
2017-10-30T12:36:23.030Z,17416
2017-10-30T12:37:23.636Z,15948
2017-10-30T12:38:24.247Z,14604
2017-10-30T12:39:24.860Z,14256
2017-10-30T12:40:25.474Z,24608
2017-10-30T12:41:26.091Z,16316
2017-10-30T12:42:26.709Z,11496
2017-10-30T12:43:27.438Z,12376
2017-10-30T12:44:27.960Z,17460
2017-10-30T12:45:28.580Z,20800
2017-10-30T12:46:29.206Z,23232
2017-10-30T12:47:29.802Z,31200
2017-10-30T12:48:30.420Z,31136
2017-10-30T12:49:31.033Z,28544
2017-10-30T12:50:31.652Z,26624
2017-10-30T12:51:32.272Z,25728
2017-10-30T12:52:32.887Z,19904
2017-10-30T12:53:33.503Z,14780
2017-10-30T12:54:34.142Z,16276
2017-10-30T12:55:34.747Z,21152
2017-10-30T12:56:35.352Z,23296
2017-10-30T12:57:35.968Z,18740
2017-10-30T12:58:36.585Z,18440
2017-10-30T12:59:37.220Z,16772
2017-10-30T13:00:37.829Z,15504
2017-10-30T13:01:38.446Z,14216
2017-10-30T13:02:39.052Z,13148
2017-10-30T13:03:39.672Z,12320
2017-10-30T13:04:40.285Z,11764
2017-10-30T13:05:40.899Z,11100
2017-10-30T13:06:41.503Z,10340
2017-10-30T13:07:42.106Z,9368
2017-10-30T13:08:42.723Z,8596
2017-10-30T13:09:43.329Z,7940
2017-10-30T13:10:43.948Z,7344
2017-10-30T13:11:44.560Z,6880
2017-10-30T13:12:45.163Z,6852
2017-10-30T13:13:45.777Z,6388
2017-10-30T13:14:46.401Z,5916
2017-10-30T13:15:47.000Z,5716
2017-10-30T13:16:47.613Z,5620
2017-10-30T13:17:48.228Z,5936
2017-10-30T13:18:48.831Z,6308
2017-10-30T13:19:49.444Z,6948
2017-10-30T13:20:50.055Z,7972
2017-10-30T13:21:50.674Z,9212
2017-10-30T13:22:51.293Z,10976
2017-10-30T13:23:51.909Z,12728
2017-10-30T13:24:52.516Z,15076
2017-10-30T13:25:53.132Z,17532
2017-10-30T13:26:53.749Z,17624
2017-10-30T13:27:54.361Z,16316
2017-10-30T13:28:54.973Z,15152
2017-10-30T13:29:55.578Z,14412
2017-10-30T13:30:56.185Z,14084
2017-10-30T13:31:56.796Z,14040
2017-10-30T13:32:57.411Z,14120
2017-10-30T13:33:58.020Z,14160
2017-10-30T13:34:58.634Z,14124
2017-10-30T13:35:59.237Z,13628
2017-10-30T13:36:59.853Z,13116
2017-10-30T13:38:00.472Z,12308
2017-10-30T13:39:01.077Z,11444
2017-10-30T13:40:02.681Z,10780
2017-10-30T13:41:03.288Z,10228
2017-10-30T13:42:03.892Z,9760
2017-10-30T13:43:04.505Z,9508
2017-10-30T13:44:05.110Z,9620
2017-10-30T13:45:05.730Z,9880
2017-10-30T13:46:06.345Z,9928
2017-10-30T13:47:06.950Z,10040
2017-10-30T13:48:07.569Z,10268
2017-10-30T13:49:08.180Z,10508
2017-10-30T13:50:08.791Z,10792
2017-10-30T13:51:09.397Z,11116
2017-10-30T13:52:10.000Z,11632
2017-10-30T13:53:10.612Z,12048
2017-10-30T13:54:11.234Z,12024